sensor_id;sensor_type;location;lat;lon;timestamp;P1;durP1;ratioP1;P2;durP2;ratioP2
70369;SDS011;57790;51.356;-2.906;2023-03-25T00:01:33;7.75;;;1.10;;
70369;SDS011;57790;51.356;-2.906;2023-03-25T00:04:33;11.53;;;1.23;;
70369;SDS011;57790;51.356;-2.906;2023-03-25T00:07:34;14.43;;;1.30;;
70369;SDS011;57790;51.356;-2.906;2023-03-25T00:10:35;9.40;;;1.10;;
70369;SDS011;57790;51.356;-2.906;2023-03-25T00:13:36;10.43;;;1.20;;
70369;SDS011;57790;51.356;-2.906;2023-03-25T00:16:36;12.03;;;1.10;;
70369;SDS011;57790;51.356;-2.906;2023-03-25T00:19:37;10.63;;;1.30;;
70369;SDS011;57790;51.356;-2.906;2023-03-25T00:22:37;12.30;;;1.93;;
70369;SDS011;57790;51.356;-2.906;2023-03-25T00:25:43;10.35;;;1.20;;
70369;SDS011;57790;51.356;-2.906;2023-03-25T00:28:44;10.02;;;1.05;;
70369;SDS011;57790;51.356;-2.906;2023-03-25T00:31:44;11.90;;;1.50;;
70369;SDS011;57790;51.356;-2.906;2023-03-25T00:34:45;13.57;;;1.30;;
70369;SDS011;57790;51.356;-2.906;2023-03-25T00:37:48;11.80;;;1.08;;
70369;SDS011;57790;51.356;-2.906;2023-03-25T00:41:20;11.32;;;1.77;;
70369;SDS011;57790;51.356;-2.906;2023-03-25T00:44:27;10.77;;;1.60;;
70369;SDS011;57790;51.356;-2.906;2023-03-25T00:47:28;10.80;;;1.30;;
70369;SDS011;57790;51.356;-2.906;2023-03-25T00:50:30;12.43;;;1.40;;
70369;SDS011;57790;51.356;-2.906;2023-03-25T00:53:30;13.75;;;1.58;;
70369;SDS011;57790;51.356;-2.906;2023-03-25T00:56:31;13.03;;;2.33;;
70369;SDS011;57790;51.356;-2.906;2023-03-25T00:59:31;12.77;;;1.40;;
70369;SDS011;57790;51.356;-2.906;2023-03-25T01:02:32;16.37;;;1.67;;
70369;SDS011;57790;51.356;-2.906;2023-03-25T01:05:32;13.60;;;1.70;;
70369;SDS011;57790;51.356;-2.906;2023-03-25T01:08:33;10.20;;;1.20;;
70369;SDS011;57790;51.356;-2.906;2023-03-25T01:11:34;14.23;;;1.37;;
70369;SDS011;57790;51.356;-2.906;2023-03-25T01:14:36;12.40;;;1.48;;
70369;SDS011;57790;51.356;-2.906;2023-03-25T01:17:37;13.97;;;1.63;;
70369;SDS011;57790;51.356;-2.906;2023-03-25T01:20:38;13.73;;;1.83;;
70369;SDS011;57790;51.356;-2.906;2023-03-25T01:23:39;12.50;;;1.57;;
70369;SDS011;57790;51.356;-2.906;2023-03-25T01:26:40;15.07;;;1.83;;
70369;SDS011;57790;51.356;-2.906;2023-03-25T01:29:42;16.25;;;1.67;;
70369;SDS011;57790;51.356;-2.906;2023-03-25T01:32:43;15.40;;;1.90;;
70369;SDS011;57790;51.356;-2.906;2023-03-25T01:35:43;13.43;;;1.60;;
70369;SDS011;57790;51.356;-2.906;2023-03-25T01:38:44;13.97;;;1.90;;
70369;SDS011;57790;51.356;-2.906;2023-03-25T01:41:47;14.20;;;1.73;;
70369;SDS011;57790;51.356;-2.906;2023-03-25T01:47:54;11.63;;;1.80;;
70369;SDS011;57790;51.356;-2.906;2023-03-25T01:51:04;14.40;;;1.52;;
70369;SDS011;57790;51.356;-2.906;2023-03-25T01:54:13;14.90;;;1.60;;
70369;SDS011;57790;51.356;-2.906;2023-03-25T01:57:17;12.25;;;1.80;;
70369;SDS011;57790;51.356;-2.906;2023-03-25T02:00:21;11.15;;;1.67;;
70369;SDS011;57790;51.356;-2.906;2023-03-25T02:03:22;15.90;;;1.70;;
70369;SDS011;57790;51.356;-2.906;2023-03-25T02:06:24;11.55;;;1.50;;
70369;SDS011;57790;51.356;-2.906;2023-03-25T02:09:28;15.88;;;1.70;;
70369;SDS011;57790;51.356;-2.906;2023-03-25T02:12:28;17.02;;;2.60;;
70369;SDS011;57790;51.356;-2.906;2023-03-25T02:15:30;16.10;;;1.83;;
70369;SDS011;57790;51.356;-2.906;2023-03-25T02:18:56;15.80;;;2.08;;
70369;SDS011;57790;51.356;-2.906;2023-03-25T02:29:43;13.40;;;1.70;;
70369;SDS011;57790;51.356;-2.906;2023-03-25T02:43:05;12.93;;;1.63;;
70369;SDS011;57790;51.356;-2.906;2023-03-25T02:46:15;15.33;;;1.80;;
70369;SDS011;57790;51.356;-2.906;2023-03-25T02:49:19;19.33;;;2.17;;
70369;SDS011;57790;51.356;-2.906;2023-03-25T02:52:32;15.60;;;1.77;;
70369;SDS011;57790;51.356;-2.906;2023-03-25T02:55:37;17.25;;;2.10;;
70369;SDS011;57790;51.356;-2.906;2023-03-25T02:58:40;13.93;;;1.63;;
70369;SDS011;57790;51.356;-2.906;2023-03-25T03:01:43;14.07;;;1.83;;
70369;SDS011;57790;51.356;-2.906;2023-03-25T03:04:48;16.13;;;2.08;;
70369;SDS011;57790;51.356;-2.906;2023-03-25T03:07:51;11.55;;;1.67;;
70369;SDS011;57790;51.356;-2.906;2023-03-25T03:11:12;18.35;;;2.00;;
70369;SDS011;57790;51.356;-2.906;2023-03-25T03:14:30;13.60;;;2.08;;
70369;SDS011;57790;51.356;-2.906;2023-03-25T03:17:45;15.73;;;2.00;;
70369;SDS011;57790;51.356;-2.906;2023-03-25T03:20:58;15.32;;;2.00;;
70369;SDS011;57790;51.356;-2.906;2023-03-25T03:24:13;17.05;;;1.92;;
70369;SDS011;57790;51.356;-2.906;2023-03-25T03:27:29;12.73;;;1.20;;
70369;SDS011;57790;51.356;-2.906;2023-03-25T03:33:52;15.07;;;1.90;;
70369;SDS011;57790;51.356;-2.906;2023-03-25T03:37:03;15.35;;;1.95;;
70369;SDS011;57790;51.356;-2.906;2023-03-25T03:40:07;12.77;;;1.65;;
70369;SDS011;57790;51.356;-2.906;2023-03-25T03:43:14;15.77;;;1.70;;
70369;SDS011;57790;51.356;-2.906;2023-03-25T03:46:20;11.70;;;1.33;;
70369;SDS011;57790;51.356;-2.906;2023-03-25T03:49:26;15.03;;;1.80;;
70369;SDS011;57790;51.356;-2.906;2023-03-25T03:52:39;13.38;;;1.80;;
70369;SDS011;57790;51.356;-2.906;2023-03-25T03:55:51;17.25;;;1.80;;
70369;SDS011;57790;51.356;-2.906;2023-03-25T03:58:57;12.18;;;1.77;;
70369;SDS011;57790;51.356;-2.906;2023-03-25T04:01:59;15.00;;;2.15;;
70369;SDS011;57790;51.356;-2.906;2023-03-25T04:05:05;15.80;;;1.73;;
70369;SDS011;57790;51.356;-2.906;2023-03-25T04:11:52;13.13;;;1.55;;
70369;SDS011;57790;51.356;-2.906;2023-03-25T04:14:55;11.48;;;1.38;;
70369;SDS011;57790;51.356;-2.906;2023-03-25T04:17:59;14.43;;;1.50;;
70369;SDS011;57790;51.356;-2.906;2023-03-25T04:21:00;14.63;;;1.90;;
70369;SDS011;57790;51.356;-2.906;2023-03-25T04:24:01;15.73;;;1.65;;
70369;SDS011;57790;51.356;-2.906;2023-03-25T04:27:02;20.07;;;1.90;;
70369;SDS011;57790;51.356;-2.906;2023-03-25T04:30:06;13.55;;;1.40;;
70369;SDS011;57790;51.356;-2.906;2023-03-25T04:33:08;12.18;;;1.83;;
70369;SDS011;57790;51.356;-2.906;2023-03-25T04:36:08;14.80;;;1.70;;
70369;SDS011;57790;51.356;-2.906;2023-03-25T04:39:10;12.88;;;1.77;;
70369;SDS011;57790;51.356;-2.906;2023-03-25T04:42:10;13.75;;;1.70;;
70369;SDS011;57790;51.356;-2.906;2023-03-25T04:45:13;15.83;;;1.90;;
70369;SDS011;57790;51.356;-2.906;2023-03-25T04:48:20;14.45;;;1.48;;
70369;SDS011;57790;51.356;-2.906;2023-03-25T04:51:23;13.48;;;1.45;;
70369;SDS011;57790;51.356;-2.906;2023-03-25T04:54:23;15.90;;;1.70;;
70369;SDS011;57790;51.356;-2.906;2023-03-25T04:57:24;13.52;;;1.30;;
70369;SDS011;57790;51.356;-2.906;2023-03-25T05:00:25;13.67;;;1.90;;
70369;SDS011;57790;51.356;-2.906;2023-03-25T05:03:26;11.98;;;1.45;;
70369;SDS011;57790;51.356;-2.906;2023-03-25T05:06:26;16.97;;;1.80;;
70369;SDS011;57790;51.356;-2.906;2023-03-25T05:09:28;12.20;;;1.50;;
70369;SDS011;57790;51.356;-2.906;2023-03-25T05:12:29;10.63;;;1.58;;
70369;SDS011;57790;51.356;-2.906;2023-03-25T05:15:30;11.43;;;1.30;;
70369;SDS011;57790;51.356;-2.906;2023-03-25T05:18:34;13.77;;;1.48;;
70369;SDS011;57790;51.356;-2.906;2023-03-25T05:21:36;14.47;;;1.03;;
70369;SDS011;57790;51.356;-2.906;2023-03-25T05:24:37;13.93;;;1.48;;
70369;SDS011;57790;51.356;-2.906;2023-03-25T05:27:38;12.97;;;1.40;;
70369;SDS011;57790;51.356;-2.906;2023-03-25T05:30:40;8.80;;;1.05;;
70369;SDS011;57790;51.356;-2.906;2023-03-25T05:33:42;13.77;;;1.43;;
70369;SDS011;57790;51.356;-2.906;2023-03-25T05:36:42;10.30;;;1.10;;
70369;SDS011;57790;51.356;-2.906;2023-03-25T05:39:43;12.07;;;1.17;;
70369;SDS011;57790;51.356;-2.906;2023-03-25T05:42:45;13.32;;;1.50;;
70369;SDS011;57790;51.356;-2.906;2023-03-25T05:45:45;14.50;;;1.27;;
70369;SDS011;57790;51.356;-2.906;2023-03-25T05:48:46;11.03;;;1.70;;
70369;SDS011;57790;51.356;-2.906;2023-03-25T05:51:46;13.77;;;1.80;;
70369;SDS011;57790;51.356;-2.906;2023-03-25T05:54:48;14.23;;;1.50;;
70369;SDS011;57790;51.356;-2.906;2023-03-25T05:57:49;15.85;;;2.85;;
70369;SDS011;57790;51.356;-2.906;2023-03-25T06:00:50;12.25;;;1.35;;
70369;SDS011;57790;51.356;-2.906;2023-03-25T06:03:51;13.03;;;1.23;;
70369;SDS011;57790;51.356;-2.906;2023-03-25T06:06:51;11.53;;;1.40;;
70369;SDS011;57790;51.356;-2.906;2023-03-25T06:09:52;13.95;;;1.52;;
70369;SDS011;57790;51.356;-2.906;2023-03-25T06:12:53;10.10;;;1.07;;
70369;SDS011;57790;51.356;-2.906;2023-03-25T06:15:54;14.15;;;1.58;;
70369;SDS011;57790;51.356;-2.906;2023-03-25T06:18:56;15.70;;;1.90;;
70369;SDS011;57790;51.356;-2.906;2023-03-25T06:21:58;15.50;;;2.40;;
70369;SDS011;57790;51.356;-2.906;2023-03-25T06:24:59;15.67;;;1.93;;
70369;SDS011;57790;51.356;-2.906;2023-03-25T06:28:00;15.77;;;2.00;;
70369;SDS011;57790;51.356;-2.906;2023-03-25T06:31:02;16.90;;;1.93;;
70369;SDS011;57790;51.356;-2.906;2023-03-25T06:34:07;11.80;;;1.52;;
70369;SDS011;57790;51.356;-2.906;2023-03-25T06:37:08;11.87;;;1.60;;
70369;SDS011;57790;51.356;-2.906;2023-03-25T06:40:09;17.92;;;1.63;;
70369;SDS011;57790;51.356;-2.906;2023-03-25T06:43:10;15.05;;;1.80;;
70369;SDS011;57790;51.356;-2.906;2023-03-25T06:46:10;11.43;;;1.80;;
70369;SDS011;57790;51.356;-2.906;2023-03-25T06:49:11;12.23;;;1.83;;
70369;SDS011;57790;51.356;-2.906;2023-03-25T06:52:12;18.73;;;1.90;;
70369;SDS011;57790;51.356;-2.906;2023-03-25T06:55:12;16.97;;;2.77;;
70369;SDS011;57790;51.356;-2.906;2023-03-25T06:58:13;14.75;;;1.58;;
70369;SDS011;57790;51.356;-2.906;2023-03-25T07:01:13;12.80;;;1.63;;
70369;SDS011;57790;51.356;-2.906;2023-03-25T07:04:13;15.67;;;1.80;;
70369;SDS011;57790;51.356;-2.906;2023-03-25T07:07:14;14.03;;;2.27;;
70369;SDS011;57790;51.356;-2.906;2023-03-25T07:10:15;14.32;;;1.90;;
70369;SDS011;57790;51.356;-2.906;2023-03-25T07:13:15;13.37;;;1.20;;
70369;SDS011;57790;51.356;-2.906;2023-03-25T07:16:15;14.23;;;1.77;;
70369;SDS011;57790;51.356;-2.906;2023-03-25T07:19:16;14.43;;;1.30;;
70369;SDS011;57790;51.356;-2.906;2023-03-25T07:22:16;14.87;;;1.63;;
70369;SDS011;57790;51.356;-2.906;2023-03-25T07:25:17;14.73;;;1.95;;
70369;SDS011;57790;51.356;-2.906;2023-03-25T07:28:17;15.53;;;2.20;;
70369;SDS011;57790;51.356;-2.906;2023-03-25T07:31:18;15.20;;;2.20;;
70369;SDS011;57790;51.356;-2.906;2023-03-25T07:34:18;16.98;;;1.60;;
70369;SDS011;57790;51.356;-2.906;2023-03-25T07:37:19;17.97;;;1.57;;
70369;SDS011;57790;51.356;-2.906;2023-03-25T07:40:20;13.60;;;1.63;;
70369;SDS011;57790;51.356;-2.906;2023-03-25T07:43:20;13.03;;;1.40;;
70369;SDS011;57790;51.356;-2.906;2023-03-25T07:46:21;12.90;;;1.40;;
70369;SDS011;57790;51.356;-2.906;2023-03-25T07:49:21;11.07;;;1.67;;
70369;SDS011;57790;51.356;-2.906;2023-03-25T07:52:22;11.37;;;1.27;;
70369;SDS011;57790;51.356;-2.906;2023-03-25T07:55:22;11.60;;;1.23;;
70369;SDS011;57790;51.356;-2.906;2023-03-25T07:58:22;8.50;;;1.15;;
70369;SDS011;57790;51.356;-2.906;2023-03-25T08:01:23;18.40;;;1.87;;
70369;SDS011;57790;51.356;-2.906;2023-03-25T08:04:23;10.20;;;1.47;;
70369;SDS011;57790;51.356;-2.906;2023-03-25T08:07:24;12.77;;;1.87;;
70369;SDS011;57790;51.356;-2.906;2023-03-25T08:10:24;14.95;;;1.70;;
70369;SDS011;57790;51.356;-2.906;2023-03-25T08:13:25;13.97;;;1.70;;
70369;SDS011;57790;51.356;-2.906;2023-03-25T08:16:25;18.03;;;1.63;;
70369;SDS011;57790;51.356;-2.906;2023-03-25T08:19:26;18.07;;;2.10;;
70369;SDS011;57790;51.356;-2.906;2023-03-25T08:22:26;14.10;;;1.95;;
70369;SDS011;57790;51.356;-2.906;2023-03-25T08:25:27;11.90;;;1.70;;
70369;SDS011;57790;51.356;-2.906;2023-03-25T08:28:28;15.38;;;1.30;;
70369;SDS011;57790;51.356;-2.906;2023-03-25T08:31:29;15.00;;;1.90;;
70369;SDS011;57790;51.356;-2.906;2023-03-25T08:34:34;15.63;;;1.40;;
70369;SDS011;57790;51.356;-2.906;2023-03-25T08:37:38;14.50;;;1.87;;
70369;SDS011;57790;51.356;-2.906;2023-03-25T08:40:41;13.40;;;1.47;;
70369;SDS011;57790;51.356;-2.906;2023-03-25T08:43:42;12.53;;;1.70;;
70369;SDS011;57790;51.356;-2.906;2023-03-25T08:46:43;16.30;;;1.75;;
70369;SDS011;57790;51.356;-2.906;2023-03-25T08:49:43;17.80;;;2.27;;
70369;SDS011;57790;51.356;-2.906;2023-03-25T08:52:44;12.75;;;1.55;;
70369;SDS011;57790;51.356;-2.906;2023-03-25T08:55:44;11.50;;;1.70;;
70369;SDS011;57790;51.356;-2.906;2023-03-25T08:58:45;12.43;;;1.73;;
70369;SDS011;57790;51.356;-2.906;2023-03-25T09:01:46;14.43;;;1.60;;
70369;SDS011;57790;51.356;-2.906;2023-03-25T09:04:47;14.47;;;1.77;;
70369;SDS011;57790;51.356;-2.906;2023-03-25T09:07:47;14.95;;;1.60;;
70369;SDS011;57790;51.356;-2.906;2023-03-25T09:10:48;15.77;;;1.65;;
70369;SDS011;57790;51.356;-2.906;2023-03-25T09:13:49;15.07;;;1.53;;
70369;SDS011;57790;51.356;-2.906;2023-03-25T09:16:49;15.60;;;1.60;;
70369;SDS011;57790;51.356;-2.906;2023-03-25T09:19:50;15.13;;;1.33;;
70369;SDS011;57790;51.356;-2.906;2023-03-25T09:22:50;10.67;;;1.30;;
70369;SDS011;57790;51.356;-2.906;2023-03-25T09:25:51;10.00;;;1.47;;
70369;SDS011;57790;51.356;-2.906;2023-03-25T09:28:51;13.10;;;1.27;;
70369;SDS011;57790;51.356;-2.906;2023-03-25T09:31:54;10.20;;;1.50;;
70369;SDS011;57790;51.356;-2.906;2023-03-25T09:34:57;12.13;;;1.50;;
70369;SDS011;57790;51.356;-2.906;2023-03-25T09:37:57;18.10;;;1.80;;
70369;SDS011;57790;51.356;-2.906;2023-03-25T09:40:58;15.90;;;1.67;;
70369;SDS011;57790;51.356;-2.906;2023-03-25T09:47:27;20.53;;;1.70;;
70369;SDS011;57790;51.356;-2.906;2023-03-25T09:50:33;12.07;;;1.25;;
70369;SDS011;57790;51.356;-2.906;2023-03-25T09:53:41;12.98;;;1.42;;
70369;SDS011;57790;51.356;-2.906;2023-03-25T09:56:49;14.32;;;1.90;;
70369;SDS011;57790;51.356;-2.906;2023-03-25T09:59:52;11.50;;;1.48;;
70369;SDS011;57790;51.356;-2.906;2023-03-25T10:02:57;12.33;;;1.47;;
70369;SDS011;57790;51.356;-2.906;2023-03-25T10:09:14;14.05;;;1.45;;
70369;SDS011;57790;51.356;-2.906;2023-03-25T10:29:28;17.90;;;1.42;;
70369;SDS011;57790;51.356;-2.906;2023-03-25T10:32:35;13.65;;;1.63;;
70369;SDS011;57790;51.356;-2.906;2023-03-25T10:35:39;10.67;;;1.50;;
70369;SDS011;57790;51.356;-2.906;2023-03-25T10:38:47;15.23;;;1.60;;
70369;SDS011;57790;51.356;-2.906;2023-03-25T10:41:58;11.63;;;1.40;;
70369;SDS011;57790;51.356;-2.906;2023-03-25T10:45:02;15.23;;;1.98;;
70369;SDS011;57790;51.356;-2.906;2023-03-25T10:48:09;14.60;;;2.00;;
70369;SDS011;57790;51.356;-2.906;2023-03-25T10:51:11;13.38;;;1.42;;
70369;SDS011;57790;51.356;-2.906;2023-03-25T10:54:15;11.00;;;1.30;;
70369;SDS011;57790;51.356;-2.906;2023-03-25T10:57:27;11.80;;;1.27;;
70369;SDS011;57790;51.356;-2.906;2023-03-25T11:00:28;14.07;;;1.50;;
70369;SDS011;57790;51.356;-2.906;2023-03-25T11:03:31;11.53;;;1.53;;
70369;SDS011;57790;51.356;-2.906;2023-03-25T11:06:33;14.75;;;1.95;;
70369;SDS011;57790;51.356;-2.906;2023-03-25T11:09:38;11.88;;;1.60;;
70369;SDS011;57790;51.356;-2.906;2023-03-25T11:12:40;14.40;;;1.63;;
70369;SDS011;57790;51.356;-2.906;2023-03-25T11:15:45;11.53;;;1.37;;
70369;SDS011;57790;51.356;-2.906;2023-03-25T11:18:46;10.13;;;0.95;;
70369;SDS011;57790;51.356;-2.906;2023-03-25T11:21:47;13.00;;;1.33;;
70369;SDS011;57790;51.356;-2.906;2023-03-25T11:25:00;10.87;;;1.40;;
70369;SDS011;57790;51.356;-2.906;2023-03-25T11:28:07;12.33;;;1.73;;
70369;SDS011;57790;51.356;-2.906;2023-03-25T11:31:21;13.05;;;1.15;;
70369;SDS011;57790;51.356;-2.906;2023-03-25T11:34:24;9.90;;;1.40;;
70369;SDS011;57790;51.356;-2.906;2023-03-25T11:37:25;10.80;;;1.40;;
70369;SDS011;57790;51.356;-2.906;2023-03-25T11:40:30;11.93;;;1.65;;
70369;SDS011;57790;51.356;-2.906;2023-03-25T11:43:35;11.68;;;1.83;;
70369;SDS011;57790;51.356;-2.906;2023-03-25T11:46:40;14.60;;;1.33;;
70369;SDS011;57790;51.356;-2.906;2023-03-25T11:49:42;13.90;;;1.67;;
70369;SDS011;57790;51.356;-2.906;2023-03-25T11:52:48;10.03;;;1.30;;
70369;SDS011;57790;51.356;-2.906;2023-03-25T11:55:54;9.95;;;1.20;;
70369;SDS011;57790;51.356;-2.906;2023-03-25T11:58:57;13.65;;;1.50;;
70369;SDS011;57790;51.356;-2.906;2023-03-25T12:02:15;11.32;;;1.33;;
70369;SDS011;57790;51.356;-2.906;2023-03-25T12:05:20;14.95;;;1.25;;
70369;SDS011;57790;51.356;-2.906;2023-03-25T12:08:21;13.37;;;1.37;;
70369;SDS011;57790;51.356;-2.906;2023-03-25T12:21:03;11.23;;;1.50;;
70369;SDS011;57790;51.356;-2.906;2023-03-25T12:24:29;14.07;;;1.40;;
70369;SDS011;57790;51.356;-2.906;2023-03-25T12:28:09;13.93;;;1.35;;
70369;SDS011;57790;51.356;-2.906;2023-03-25T12:37:55;12.10;;;2.50;;
70369;SDS011;57790;51.356;-2.906;2023-03-25T12:48:01;12.70;;;1.23;;
70369;SDS011;57790;51.356;-2.906;2023-03-25T12:51:21;10.40;;;1.25;;
70369;SDS011;57790;51.356;-2.906;2023-03-25T12:58:47;13.80;;;1.60;;
70369;SDS011;57790;51.356;-2.906;2023-03-25T13:01:52;8.95;;;1.58;;
70369;SDS011;57790;51.356;-2.906;2023-03-25T13:05:19;13.55;;;1.05;;
70369;SDS011;57790;51.356;-2.906;2023-03-25T13:08:27;15.88;;;1.90;;
70369;SDS011;57790;51.356;-2.906;2023-03-25T13:14:57;11.90;;;1.55;;
70369;SDS011;57790;51.356;-2.906;2023-03-25T13:18:14;9.32;;;1.30;;
70369;SDS011;57790;51.356;-2.906;2023-03-25T13:21:21;16.75;;;2.00;;
70369;SDS011;57790;51.356;-2.906;2023-03-25T13:24:35;16.38;;;2.03;;
70369;SDS011;57790;51.356;-2.906;2023-03-25T13:27:42;11.00;;;1.23;;
70369;SDS011;57790;51.356;-2.906;2023-03-25T13:30:42;12.40;;;1.45;;
70369;SDS011;57790;51.356;-2.906;2023-03-25T13:33:53;10.03;;;1.57;;
70369;SDS011;57790;51.356;-2.906;2023-03-25T13:40:42;11.25;;;1.65;;
70369;SDS011;57790;51.356;-2.906;2023-03-25T13:44:48;18.00;;;1.80;;
70369;SDS011;57790;51.356;-2.906;2023-03-25T13:47:36;14.07;;;1.40;;
70369;SDS011;57790;51.356;-2.906;2023-03-25T13:50:42;10.77;;;1.70;;
70369;SDS011;57790;51.356;-2.906;2023-03-25T13:53:44;10.73;;;1.57;;
70369;SDS011;57790;51.356;-2.906;2023-03-25T14:03:26;8.60;;;1.20;;
70369;SDS011;57790;51.356;-2.906;2023-03-25T14:10:07;13.95;;;1.25;;
70369;SDS011;57790;51.356;-2.906;2023-03-25T14:16:32;13.23;;;1.20;;
70369;SDS011;57790;51.356;-2.906;2023-03-25T14:19:37;9.07;;;1.23;;
70369;SDS011;57790;51.356;-2.906;2023-03-25T14:22:41;12.30;;;1.80;;
70369;SDS011;57790;51.356;-2.906;2023-03-25T14:25:43;14.40;;;1.67;;
70369;SDS011;57790;51.356;-2.906;2023-03-25T14:28:47;12.00;;;1.50;;
70369;SDS011;57790;51.356;-2.906;2023-03-25T14:38:52;11.40;;;1.05;;
70369;SDS011;57790;51.356;-2.906;2023-03-25T14:48:40;11.47;;;1.20;;
70369;SDS011;57790;51.356;-2.906;2023-03-25T14:51:47;10.40;;;1.30;;
70369;SDS011;57790;51.356;-2.906;2023-03-25T14:54:50;11.57;;;1.60;;
70369;SDS011;57790;51.356;-2.906;2023-03-25T14:57:59;7.47;;;1.17;;
70369;SDS011;57790;51.356;-2.906;2023-03-25T15:01:15;6.60;;;0.98;;
70369;SDS011;57790;51.356;-2.906;2023-03-25T15:05:22;11.43;;;1.57;;
70369;SDS011;57790;51.356;-2.906;2023-03-25T15:08:15;8.10;;;1.27;;
70369;SDS011;57790;51.356;-2.906;2023-03-25T15:11:30;10.70;;;1.40;;
70369;SDS011;57790;51.356;-2.906;2023-03-25T15:14:40;12.13;;;1.30;;
70369;SDS011;57790;51.356;-2.906;2023-03-25T15:17:43;6.75;;;0.98;;
70369;SDS011;57790;51.356;-2.906;2023-03-25T15:20:45;8.27;;;1.00;;
70369;SDS011;57790;51.356;-2.906;2023-03-25T15:23:46;10.20;;;1.10;;
70369;SDS011;57790;51.356;-2.906;2023-03-25T15:26:48;8.87;;;1.17;;
70369;SDS011;57790;51.356;-2.906;2023-03-25T15:52:29;8.30;;;1.13;;
70369;SDS011;57790;51.356;-2.906;2023-03-25T15:55:52;7.30;;;1.20;;
70369;SDS011;57790;51.356;-2.906;2023-03-25T15:59:04;8.15;;;1.08;;
70369;SDS011;57790;51.356;-2.906;2023-03-25T16:02:29;9.75;;;1.60;;
70369;SDS011;57790;51.356;-2.906;2023-03-25T16:05:44;6.15;;;1.00;;
70369;SDS011;57790;51.356;-2.906;2023-03-25T16:08:48;10.57;;;1.30;;
70369;SDS011;57790;51.356;-2.906;2023-03-25T16:11:49;10.98;;;1.00;;
70369;SDS011;57790;51.356;-2.906;2023-03-25T16:14:50;9.70;;;1.25;;
70369;SDS011;57790;51.356;-2.906;2023-03-25T16:17:51;10.45;;;1.27;;
70369;SDS011;57790;51.356;-2.906;2023-03-25T16:20:54;7.75;;;1.10;;
70369;SDS011;57790;51.356;-2.906;2023-03-25T16:24:00;10.97;;;1.30;;
70369;SDS011;57790;51.356;-2.906;2023-03-25T16:27:18;8.95;;;1.50;;
70369;SDS011;57790;51.356;-2.906;2023-03-25T16:30:26;11.38;;;1.70;;
70369;SDS011;57790;51.356;-2.906;2023-03-25T16:33:39;12.32;;;1.20;;
70369;SDS011;57790;51.356;-2.906;2023-03-25T16:36:44;9.05;;;1.20;;
70369;SDS011;57790;51.356;-2.906;2023-03-25T16:39:53;11.37;;;1.10;;
70369;SDS011;57790;51.356;-2.906;2023-03-25T16:43:02;13.05;;;1.30;;
70369;SDS011;57790;51.356;-2.906;2023-03-25T16:46:07;12.30;;;1.40;;
70369;SDS011;57790;51.356;-2.906;2023-03-25T16:49:19;8.98;;;1.42;;
70369;SDS011;57790;51.356;-2.906;2023-03-25T16:52:26;8.93;;;1.42;;
70369;SDS011;57790;51.356;-2.906;2023-03-25T16:55:41;7.90;;;1.00;;
70369;SDS011;57790;51.356;-2.906;2023-03-25T16:58:55;8.07;;;1.35;;
70369;SDS011;57790;51.356;-2.906;2023-03-25T17:02:26;10.48;;;1.33;;
70369;SDS011;57790;51.356;-2.906;2023-03-25T17:09:01;11.52;;;1.40;;
70369;SDS011;57790;51.356;-2.906;2023-03-25T17:12:13;9.50;;;1.20;;
70369;SDS011;57790;51.356;-2.906;2023-03-25T17:15:16;8.60;;;1.40;;
70369;SDS011;57790;51.356;-2.906;2023-03-25T17:18:17;7.60;;;1.13;;
70369;SDS011;57790;51.356;-2.906;2023-03-25T17:21:30;9.30;;;1.27;;
70369;SDS011;57790;51.356;-2.906;2023-03-25T17:24:36;7.57;;;1.25;;
70369;SDS011;57790;51.356;-2.906;2023-03-25T17:27:40;8.95;;;1.30;;
70369;SDS011;57790;51.356;-2.906;2023-03-25T17:30:44;10.23;;;1.40;;
70369;SDS011;57790;51.356;-2.906;2023-03-25T17:33:46;7.40;;;1.20;;
70369;SDS011;57790;51.356;-2.906;2023-03-25T17:36:58;8.85;;;1.23;;
70369;SDS011;57790;51.356;-2.906;2023-03-25T17:40:04;9.18;;;1.63;;
70369;SDS011;57790;51.356;-2.906;2023-03-25T17:43:16;8.82;;;1.30;;
70369;SDS011;57790;51.356;-2.906;2023-03-25T17:46:23;9.43;;;1.48;;
70369;SDS011;57790;51.356;-2.906;2023-03-25T17:49:25;9.23;;;1.87;;
70369;SDS011;57790;51.356;-2.906;2023-03-25T17:52:25;9.45;;;1.30;;
70369;SDS011;57790;51.356;-2.906;2023-03-25T17:55:26;6.50;;;0.93;;
70369;SDS011;57790;51.356;-2.906;2023-03-25T17:58:27;9.60;;;1.35;;
70369;SDS011;57790;51.356;-2.906;2023-03-25T18:01:29;8.90;;;1.10;;
70369;SDS011;57790;51.356;-2.906;2023-03-25T18:04:31;7.07;;;1.10;;
70369;SDS011;57790;51.356;-2.906;2023-03-25T18:07:32;9.77;;;1.55;;
70369;SDS011;57790;51.356;-2.906;2023-03-25T18:10:33;12.20;;;1.60;;
70369;SDS011;57790;51.356;-2.906;2023-03-25T18:13:34;9.82;;;1.50;;
70369;SDS011;57790;51.356;-2.906;2023-03-25T18:16:35;11.60;;;1.88;;
70369;SDS011;57790;51.356;-2.906;2023-03-25T18:19:35;9.00;;;1.30;;
70369;SDS011;57790;51.356;-2.906;2023-03-25T18:22:36;7.50;;;1.20;;
70369;SDS011;57790;51.356;-2.906;2023-03-25T18:25:36;7.80;;;1.20;;
70369;SDS011;57790;51.356;-2.906;2023-03-25T18:28:36;9.20;;;1.40;;
70369;SDS011;57790;51.356;-2.906;2023-03-25T18:31:38;8.98;;;1.40;;
70369;SDS011;57790;51.356;-2.906;2023-03-25T18:34:38;8.90;;;1.60;;
70369;SDS011;57790;51.356;-2.906;2023-03-25T18:37:39;10.98;;;1.65;;
70369;SDS011;57790;51.356;-2.906;2023-03-25T18:40:40;10.60;;;1.47;;
70369;SDS011;57790;51.356;-2.906;2023-03-25T18:43:41;7.50;;;1.20;;
70369;SDS011;57790;51.356;-2.906;2023-03-25T18:46:41;10.03;;;2.10;;
70369;SDS011;57790;51.356;-2.906;2023-03-25T18:49:41;8.43;;;1.43;;
70369;SDS011;57790;51.356;-2.906;2023-03-25T18:52:42;6.73;;;1.63;;
70369;SDS011;57790;51.356;-2.906;2023-03-25T18:55:43;8.52;;;1.27;;
70369;SDS011;57790;51.356;-2.906;2023-03-25T18:58:45;9.30;;;1.60;;
70369;SDS011;57790;51.356;-2.906;2023-03-25T19:01:45;8.52;;;1.63;;
70369;SDS011;57790;51.356;-2.906;2023-03-25T19:04:46;7.87;;;1.33;;
70369;SDS011;57790;51.356;-2.906;2023-03-25T19:07:47;6.97;;;1.23;;
70369;SDS011;57790;51.356;-2.906;2023-03-25T19:10:48;7.53;;;1.50;;
70369;SDS011;57790;51.356;-2.906;2023-03-25T19:13:49;7.03;;;1.07;;
70369;SDS011;57790;51.356;-2.906;2023-03-25T19:16:50;6.57;;;1.13;;
70369;SDS011;57790;51.356;-2.906;2023-03-25T19:19:50;9.43;;;1.57;;
70369;SDS011;57790;51.356;-2.906;2023-03-25T19:22:51;7.70;;;1.33;;
70369;SDS011;57790;51.356;-2.906;2023-03-25T19:25:51;7.73;;;1.20;;
70369;SDS011;57790;51.356;-2.906;2023-03-25T19:28:52;6.10;;;1.30;;
70369;SDS011;57790;51.356;-2.906;2023-03-25T19:31:52;7.47;;;1.03;;
70369;SDS011;57790;51.356;-2.906;2023-03-25T19:34:53;6.93;;;1.20;;
70369;SDS011;57790;51.356;-2.906;2023-03-25T19:37:55;7.93;;;1.40;;
70369;SDS011;57790;51.356;-2.906;2023-03-25T19:40:59;8.07;;;1.60;;
70369;SDS011;57790;51.356;-2.906;2023-03-25T19:44:05;6.47;;;1.27;;
70369;SDS011;57790;51.356;-2.906;2023-03-25T19:47:06;7.83;;;1.03;;
70369;SDS011;57790;51.356;-2.906;2023-03-25T19:50:11;8.50;;;1.10;;
70369;SDS011;57790;51.356;-2.906;2023-03-25T19:53:13;8.68;;;1.40;;
70369;SDS011;57790;51.356;-2.906;2023-03-25T19:56:14;8.45;;;1.10;;
70369;SDS011;57790;51.356;-2.906;2023-03-25T19:59:14;8.40;;;1.40;;
70369;SDS011;57790;51.356;-2.906;2023-03-25T20:02:17;10.80;;;1.30;;
70369;SDS011;57790;51.356;-2.906;2023-03-25T20:05:18;8.00;;;1.30;;
70369;SDS011;57790;51.356;-2.906;2023-03-25T20:08:20;6.80;;;1.45;;
70369;SDS011;57790;51.356;-2.906;2023-03-25T20:11:20;9.67;;;1.50;;
70369;SDS011;57790;51.356;-2.906;2023-03-25T20:14:21;10.77;;;1.37;;
70369;SDS011;57790;51.356;-2.906;2023-03-25T20:17:22;12.23;;;1.70;;
70369;SDS011;57790;51.356;-2.906;2023-03-25T20:20:23;11.43;;;1.23;;